Time;durP1;ratioP1;P1;durP2;ratioP2;P2;SDS_P1;SDS_P2;PMS_P1;PMS_P2;Temp;Humidity;BMP_temperature;BMP_pressure;BME280_temperature;BME280_humidity;BME280_pressure;Samples;Min_cycle;Max_cycle;Signal;HPM_P1;HPM_P2
2023/09/22 00:03:23;;;;;;;2.08;1.13;;;20.10;94.40;;;18.89;77.80;99296.13;10000095;29;96556;-88
2023/09/22 00:08:27;;;;;;;2.25;0.90;;;20.10;94.60;;;18.88;78.52;99302.56;9987811;29;96707;-89
2023/09/22 00:13:31;;;;;;;3.72;1.13;;;20.10;94.80;;;18.89;78.79;99303.38;9962338;29;96539;-89
2023/09/22 00:18:35;;;;;;;4.60;1.58;;;20.10;94.90;;;18.85;79.03;99307.63;9990138;29;96881;-89
2023/09/22 00:23:39;;;;;;;1.40;0.85;;;20.00;94.90;;;18.73;79.36;99299.63;9975495;29;97081;-90
2023/09/22 00:28:43;;;;;;;2.50;1.38;;;19.90;95.10;;;18.61;79.84;99309.59;9968621;29;96582;-89
2023/09/22 00:33:48;;;;;;;2.38;1.15;;;19.80;95.20;;;18.48;80.69;99299.97;9979044;29;96617;-89
2023/09/22 00:38:52;;;;;;;3.38;1.50;;;19.70;95.50;;;18.37;81.12;99308.91;9981566;29;98087;-90
2023/09/22 00:43:56;;;;;;;3.70;1.10;;;19.60;95.60;;;18.22;81.77;99306.72;10000020;29;96958;-90
2023/09/22 00:49:02;;;;;;;1.58;1.05;;;19.40;95.80;;;18.07;83.19;99309.13;9959402;29;96624;-91
2023/09/22 00:54:07;;;;;;;3.78;1.40;;;19.30;96.10;;;17.90;83.76;99309.84;9971769;29;96661;-91
2023/09/22 00:59:11;;;;;;;2.80;1.40;;;19.10;96.20;;;17.72;84.70;99303.81;9995824;29;96519;-90
2023/09/22 01:04:15;;;;;;;3.20;1.75;;;18.90;96.50;;;17.52;85.27;99307.66;9983229;29;96898;-91
2023/09/22 01:09:20;;;;;;;3.35;1.60;;;18.70;96.80;;;17.35;86.30;99310.22;9966410;29;97002;-92
2023/09/22 01:14:24;;;;;;;2.95;1.60;;;18.50;97.10;;;17.18;87.48;99311.97;10013523;29;96436;-92
2023/09/22 01:19:30;;;;;;;3.83;2.08;;;18.40;97.50;;;17.04;88.74;99315.94;9998495;29;98006;-91
2023/09/22 01:24:33;;;;;;;3.03;1.88;;;18.20;97.80;;;16.94;89.50;99321.84;9992091;29;96665;-91
2023/09/22 01:29:37;;;;;;;3.90;2.08;;;18.10;98.10;;;16.83;90.59;99318.09;9979196;29;97646;-92
2023/09/22 01:34:41;;;;;;;4.85;1.85;;;18.00;98.30;;;16.74;91.40;99316.81;9998272;29;96643;-91
2023/09/22 01:39:45;;;;;;;4.05;1.67;;;17.90;98.60;;;16.65;92.35;99318.13;10011033;29;97980;-91
2023/09/22 01:44:49;;;;;;;5.40;2.10;;;17.80;99.00;;;16.56;93.36;99314.97;9979686;29;97587;-91
2023/09/22 01:49:58;;;;;;;3.15;1.70;;;17.70;99.40;;;16.50;93.89;99320.44;9996457;29;97262;-91
2023/09/22 01:55:01;;;;;;;4.47;1.75;;;17.70;99.60;;;16.46;94.86;99313.88;9982702;29;96735;-92
2023/09/22 02:00:18;;;;;;;3.80;1.60;;;17.70;99.90;;;16.42;95.46;99320.72;9980446;29;96752;-91
2023/09/22 02:05:22;;;;;;;5.95;2.20;;;17.60;99.90;;;16.36;95.68;99321.63;9969625;29;98499;-91
2023/09/22 02:10:26;;;;;;;5.22;1.88;;;17.50;99.90;;;16.27;95.73;99326.50;10010608;29;96866;-92
2023/09/22 02:15:30;;;;;;;2.83;1.70;;;17.50;99.90;;;16.19;97.26;99334.84;9998519;29;96561;-91
2023/09/22 02:20:35;;;;;;;5.15;2.50;;;17.40;99.90;;;16.17;98.29;99331.56;9981590;29;97506;-92
2023/09/22 02:25:38;;;;;;;6.10;1.95;;;17.40;99.90;;;16.12;99.02;99323.38;9982246;29;96714;-92
2023/09/22 02:30:42;;;;;;;6.07;2.55;;;17.30;99.90;;;16.09;99.79;99318.47;10010347;29;96772;-92
2023/09/22 02:35:46;;;;;;;4.72;2.38;;;17.30;99.90;;;16.04;99.78;99316.47;9996232;29;96533;-92
2023/09/22 02:40:49;;;;;;;5.10;2.40;;;17.20;99.90;;;15.97;100.00;99315.75;9979928;29;96673;-91
2023/09/22 02:45:55;;;;;;;5.05;1.90;;;17.20;99.90;;;15.95;100.00;99312.44;9934812;29;96690;-92
2023/09/22 02:50:59;;;;;;;6.45;2.53;;;17.10;99.90;;;15.89;100.00;99313.34;9961140;29;96837;-93
2023/09/22 02:56:06;;;;;;;8.02;2.83;;;17.10;99.90;;;15.85;100.00;99306.81;9973531;29;97886;-92
2023/09/22 03:01:09;;;;;;;6.35;2.75;;;17.10;99.90;;;15.84;100.00;99305.19;9962721;29;96593;-92
2023/09/22 03:06:14;;;;;;;5.68;2.33;;;17.10;99.90;;;15.79;100.00;99308.53;9973222;29;96519;-92
2023/09/22 03:11:17;;;;;;;4.65;2.45;;;17.00;99.90;;;15.72;100.00;99295.22;9955339;29;97703;-91
2023/09/22 03:16:21;;;;;;;5.13;2.35;;;16.90;99.90;;;15.72;100.00;99307.78;9971773;29;97529;-92
2023/09/22 03:21:28;;;;;;;5.82;2.70;;;16.90;99.90;;;15.73;100.00;99309.41;9974618;29;97553;-90
2023/09/22 03:26:32;;;;;;;4.13;2.17;;;16.90;99.90;;;15.67;100.00;99300.41;9970769;29;96572;-93
2023/09/22 03:31:38;;;;;;;7.82;2.63;;;16.90;99.90;;;15.64;100.00;99305.38;9968632;29;98604;-93
2023/09/22 03:36:43;;;;;;;4.93;2.47;;;16.90;99.90;;;15.62;100.00;99302.94;9978984;29;96728;-92
2023/09/22 03:41:46;;;;;;;7.00;2.65;;;16.80;99.90;;;15.61;100.00;99306.63;9962118;29;96603;-93
2023/09/22 03:46:50;;;;;;;4.18;2.53;;;16.80;99.90;;;15.61;100.00;99308.47;9960185;29;97984;-92
2023/09/22 03:51:54;;;;;;;7.65;2.55;;;16.80;99.90;;;15.59;100.00;99300.66;10002650;29;96524;-92
2023/09/22 03:56:57;;;;;;;5.72;2.60;;;16.80;99.90;;;15.56;100.00;99290.41;9988198;29;97683;-92
2023/09/22 04:02:01;;;;;;;7.40;2.47;;;16.80;99.90;;;15.52;100.00;99300.72;10037995;29;96588;-91
2023/09/22 04:07:05;;;;;;;5.82;2.13;;;16.70;99.90;;;15.50;100.00;99296.66;9986732;29;96968;-89
2023/09/22 04:12:09;;;;;;;4.47;2.40;;;16.70;99.90;;;15.49;100.00;99305.72;9981324;29;96734;-89
2023/09/22 04:17:13;;;;;;;5.78;2.65;;;16.70;99.90;;;15.47;100.00;99311.31;9994046;29;97753;-89
2023/09/22 04:22:18;;;;;;;5.53;2.53;;;16.70;99.90;;;15.44;100.00;99309.06;9976968;29;97049;-89
2023/09/22 04:27:22;;;;;;;7.93;3.30;;;16.70;99.90;;;15.42;100.00;99315.69;10005489;29;97143;-89
2023/09/22 04:32:33;;;;;;;5.40;2.67;;;16.60;99.90;;;15.41;100.00;99322.91;9988617;29;96971;-88
2023/09/22 04:37:38;;;;;;;4.63;2.50;;;16.60;99.90;;;15.42;100.00;99313.81;9998433;29;96974;-88
2023/09/22 04:42:41;;;;;;;4.47;2.17;;;16.60;99.90;;;15.45;100.00;99325.94;9962231;29;97171;-87
2023/09/22 04:47:47;;;;;;;5.20;2.28;;;16.70;99.90;;;15.51;100.00;99331.22;9999729;29;96581;-88
2023/09/22 04:52:52;;;;;;;8.25;3.40;;;16.70;99.90;;;15.56;100.00;99330.56;10001465;29;97273;-88
2023/09/22 04:57:56;;;;;;;5.63;3.03;;;16.70;99.90;;;15.61;100.00;99327.22;9984533;29;97829;-87
2023/09/22 05:03:01;;;;;;;5.45;2.72;;;16.80;99.90;;;15.70;100.00;99326.72;9977070;29;96726;-87
2023/09/22 05:08:06;;;;;;;6.18;3.03;;;16.90;99.90;;;15.81;100.00;99329.72;9977727;29;96514;-88
2023/09/22 05:13:09;;;;;;;6.80;2.45;;;17.00;99.90;;;15.89;100.00;99334.78;10007291;29;96667;-87
2023/09/22 05:18:14;;;;;;;4.50;2.33;;;17.10;99.90;;;15.95;100.00;99336.56;9977054;29;98566;-88
2023/09/22 05:23:18;;;;;;;4.75;2.55;;;17.20;99.90;;;16.00;100.00;99348.25;9966516;29;97990;-88
2023/09/22 05:28:22;;;;;;;6.00;2.53;;;17.20;99.90;;;16.02;100.00;99338.13;10013774;29;96899;-89
2023/09/22 05:33:25;;;;;;;5.18;2.30;;;17.20;99.90;;;16.06;100.00;99330.44;9990168;29;96670;-88
2023/09/22 05:38:29;;;;;;;4.50;2.75;;;17.30;99.90;;;16.10;100.00;99334.34;9974029;29;96577;-87
2023/09/22 05:43:33;;;;;;;4.55;2.47;;;17.30;99.90;;;16.16;100.00;99344.16;9982713;29;98102;-86
2023/09/22 05:48:37;;;;;;;5.50;2.65;;;17.30;99.90;;;16.27;100.00;99338.03;9980635;29;96765;-86
2023/09/22 05:53:41;;;;;;;4.53;2.78;;;17.50;99.90;;;16.39;100.00;99348.81;9993000;29;96680;-86
2023/09/22 05:58:46;;;;;;;5.38;2.45;;;17.50;99.90;;;16.50;100.00;99350.75;9982392;29;96723;-87
2023/09/22 06:03:51;;;;;;;5.30;2.75;;;17.60;99.90;;;16.63;100.00;99349.75;10000528;29;96870;-87
2023/09/22 06:08:54;;;;;;;4.47;2.70;;;17.80;99.90;;;16.78;100.00;99346.66;9994253;29;96599;-86
2023/09/22 06:13:58;;;;;;;4.95;2.65;;;18.00;99.90;;;16.91;100.00;99345.63;10009361;29;97218;-86
2023/09/22 06:19:03;;;;;;;5.35;2.53;;;18.10;99.90;;;17.08;100.00;99355.47;9986770;29;96725;-86
2023/09/22 06:24:07;;;;;;;6.50;2.70;;;18.30;99.90;;;17.29;100.00;99369.41;9997473;29;96521;-86
2023/09/22 06:29:11;;;;;;;5.13;2.78;;;18.40;99.90;;;17.44;100.00;99368.94;9947154;29;98186;-86
2023/09/22 06:34:15;;;;;;;4.40;2.67;;;18.60;99.90;;;17.59;100.00;99375.50;9978584;29;96649;-86
2023/09/22 06:39:19;;;;;;;7.10;2.90;;;18.80;99.90;;;17.71;100.00;99388.94;9974907;29;96536;-85
2023/09/22 06:44:22;;;;;;;3.45;2.63;;;18.90;99.90;;;17.81;100.00;99381.16;9984201;29;98490;-86
2023/09/22 06:49:27;;;;;;;5.80;2.70;;;19.00;99.90;;;17.98;100.00;99383.09;9983464;29;97631;-86
2023/09/22 06:54:31;;;;;;;6.90;2.83;;;19.20;99.90;;;18.14;100.00;99374.31;9986110;29;96697;-86
2023/09/22 06:59:34;;;;;;;5.65;3.22;;;19.40;99.90;;;18.34;100.00;99376.59;9968864;29;98314;-85
2023/09/22 07:04:38;;;;;;;9.13;3.97;;;19.60;99.90;;;18.53;100.00;99380.78;9979374;29;96636;-86
2023/09/22 07:09:45;;;;;;;8.10;3.10;;;19.70;99.90;;;18.72;100.00;99378.72;9997863;29;97565;-86
2023/09/22 07:14:48;;;;;;;5.68;3.38;;;19.90;99.90;;;18.93;100.00;99379.91;9987749;29;98421;-86
2023/09/22 07:48:37;;;;;;;5.07;2.15;;;20.70;99.90;;;20.73;92.93;99374.13;10331794;28;96551;-87
2023/09/22 07:53:44;;;;;;;5.25;2.63;;;21.70;99.90;;;20.99;92.74;99380.59;10281932;28;96629;-87
2023/09/22 07:58:47;;;;;;;4.88;2.60;;;22.00;99.90;;;21.28;89.39;99390.03;10302511;28;96606;-88
2023/09/22 08:04:11;;;;;;;6.18;2.60;;;22.30;99.90;;;21.61;88.64;99375.47;10285578;28;98486;-88
2023/09/22 08:09:15;;;;;;;3.60;2.20;;;22.60;99.90;;;21.95;86.16;99363.50;10297269;28;96673;-88
2023/09/22 08:14:21;;;;;;;4.35;2.70;;;23.00;99.90;;;22.16;82.56;99371.50;10278171;28;97495;-87
2023/09/22 08:19:25;;;;;;;4.03;2.03;;;23.40;99.90;;;22.45;82.39;99384.59;10288985;28;96665;-87
2023/09/22 08:24:28;;;;;;;7.50;2.30;;;23.60;99.90;;;22.76;80.81;99390.09;10270086;28;97537;-87
2023/09/22 08:29:32;;;;;;;4.28;1.85;;;23.90;99.80;;;23.09;77.92;99389.66;10284592;28;96626;-88
2023/09/22 08:34:38;;;;;;;4.40;1.90;;;24.20;99.00;;;23.19;76.64;99386.94;10285497;28;97694;-87
2023/09/22 08:39:42;;;;;;;6.07;2.17;;;24.40;98.40;;;23.24;74.30;99376.09;10279627;28;96940;-87
2023/09/22 08:44:46;;;;;;;7.80;2.30;;;24.50;97.60;;;23.34;72.61;99379.91;10283414;28;96633;-87
2023/09/22 08:49:50;;;;;;;6.15;2.03;;;24.50;96.60;;;23.37;71.88;99376.66;10267650;28;96540;-87
2023/09/22 08:54:54;;;;;;;4.65;2.10;;;24.60;96.30;;;23.35;71.33;99378.81;10253252;28;96762;-89
2023/09/22 08:59:57;;;;;;;5.07;2.28;;;24.60;95.90;;;23.32;71.29;99382.06;10242940;28;96553;-88
2023/09/22 09:05:01;;;;;;;4.70;2.20;;;24.50;95.70;;;23.40;72.40;99373.41;10243149;28;98385;-88
2023/09/22 09:10:05;;;;;;;6.93;2.30;;;24.60;95.80;;;23.74;71.70;99363.59;10265282;28;96656;-88
2023/09/22 09:15:10;;;;;;;4.45;2.22;;;24.90;95.80;;;23.91;69.97;99365.19;10258141;28;96567;-88
2023/09/22 09:20:14;;;;;;;4.10;1.50;;;25.10;95.10;;;23.93;69.66;99360.31;10233040;28;97740;-92
2023/09/22 09:25:18;;;;;;;6.97;2.42;;;25.10;94.80;;;23.86;69.07;99365.22;10247655;28;96643;-93
2023/09/22 09:30:21;;;;;;;4.93;1.90;;;25.10;94.40;;;23.75;68.88;99362.53;10242486;28;96494;-90
2023/09/22 09:35:29;;;;;;;5.75;1.63;;;25.00;94.30;;;23.72;69.44;99356.84;10250996;28;96575;-93
2023/09/22 09:40:51;;;;;;;4.57;1.80;;;24.90;94.40;;;23.73;68.63;99356.56;10295290;28;97259;-94
2023/09/22 09:45:57;;;;;;;4.85;2.00;;;24.90;94.40;;;23.74;69.15;99355.47;10245382;28;96551;-92
2023/09/22 09:51:05;;;;;;;5.47;1.40;;;24.90;94.30;;;23.84;69.49;99346.50;10260529;28;96431;-94
2023/09/22 09:56:11;;;;;;;6.80;1.63;;;25.00;94.30;;;24.01;69.37;99335.31;10271687;28;97409;-94
2023/09/22 10:01:17;;;;;;;4.80;1.80;;;25.20;94.30;;;24.14;68.27;99326.59;10236506;28;96748;-96
2023/09/22 10:06:22;;;;;;;4.10;1.75;;;25.40;94.10;;;24.38;69.29;99323.25;10241898;28;96605;-89
2023/09/22 10:11:26;;;;;;;3.60;1.80;;;25.60;94.10;;;24.83;66.87;99322.16;10257826;28;96831;-93
2023/09/22 10:16:30;;;;;;;4.40;1.83;;;26.00;93.60;;;25.36;64.65;99303.22;10255132;28;96543;-94
2023/09/22 10:21:45;;;;;;;4.15;1.42;;;26.50;93.10;;;25.59;62.46;99291.56;10246816;28;96720;-94
2023/09/22 10:27:06;;;;;;;4.65;1.98;;;26.80;92.40;;;25.75;61.39;99294.16;10249343;28;96545;-94
2023/09/22 10:32:15;;;;;;;5.35;1.70;;;26.90;92.00;;;25.86;61.10;99288.31;10256203;28;96647;-96
2023/09/22 10:37:26;;;;;;;5.13;1.40;;;27.10;91.60;;;25.93;59.81;99282.53;10255696;28;96466;-94
2023/09/22 10:42:30;;;;;;;2.65;1.50;;;27.20;91.00;;;25.91;58.81;99262.97;10205851;28;96509;-94
2023/09/22 10:47:49;;;;;;;6.20;1.48;;;27.20;90.30;;;26.00;59.31;99258.47;10222625;28;99132;-94
2023/09/22 10:53:02;;;;;;;4.10;1.65;;;27.20;90.20;;;26.14;58.74;99261.28;10236185;28;96676;-93
2023/09/22 10:58:09;;;;;;;6.32;1.60;;;27.20;90.00;;;26.31;56.90;99256.13;10233238;28;98097;-88
2023/09/22 11:03:15;;;;;;;2.42;1.23;;;27.40;88.40;;;26.82;52.78;99249.94;10237407;28;97867;-94
2023/09/22 11:08:18;;;;;;;2.53;1.38;;;28.00;86.20;;;27.37;50.58;99247.34;10242554;28;97550;-86
2023/09/22 11:13:23;;;;;;;4.63;1.10;;;28.70;80.60;;;27.53;49.40;99242.41;10251791;28;96638;-91
2023/09/22 11:18:37;;;;;;;2.30;1.08;;;28.90;79.80;;;27.68;49.32;99236.63;10241389;28;98734;-87
2023/09/22 11:23:41;;;;;;;3.08;1.50;;;28.90;79.20;;;27.67;48.98;99234.22;10253382;28;96677;-91
2023/09/22 11:28:46;;;;;;;2.42;1.20;;;28.90;78.10;;;27.65;50.29;99230.97;10238574;28;97217;-91
2023/09/22 11:34:03;;;;;;;4.18;0.98;;;28.80;78.80;;;27.72;48.42;99240.41;10266234;28;96561;-90
2023/09/22 11:39:08;;;;;;;3.10;0.90;;;28.90;77.40;;;27.71;47.33;99221.63;10234625;28;96631;-89
2023/09/22 11:44:13;;;;;;;3.08;1.10;;;28.80;76.50;;;27.94;46.59;99226.00;10246039;28;97298;-88
2023/09/22 11:49:18;;;;;;;3.53;1.58;;;28.90;75.50;;;28.40;45.63;99222.28;10249542;28;97194;-89
2023/09/22 11:54:28;;;;;;;2.95;1.50;;;29.30;74.50;;;28.80;45.02;99225.97;10250186;28;96979;-89
2023/09/22 11:59:40;;;;;;;5.00;1.13;;;29.70;74.00;;;28.92;41.86;99222.69;10252357;28;96712;-86
2023/09/22 12:04:43;;;;;;;2.20;0.90;;;30.00;70.80;;;28.77;41.24;99223.03;10259976;28;98065;-92
2023/09/22 12:09:48;;;;;;;8.00;2.10;;;29.80;68.40;;;28.62;40.80;99234.38;10239678;28;96766;-90
2023/09/22 12:14:51;;;;;;;4.35;0.90;;;29.70;66.80;;;28.44;42.06;99231.50;10233863;28;96858;-92
2023/09/22 12:19:55;;;;;;;5.93;1.20;;;29.50;68.00;;;28.37;42.41;99233.84;10245076;28;96686;-90
2023/09/22 12:24:59;;;;;;;3.15;1.20;;;29.50;68.60;;;28.15;41.54;99247.44;10271670;28;96784;-89
2023/09/22 12:30:03;;;;;;;1.88;1.00;;;29.30;67.30;;;28.00;41.93;99246.63;10228336;28;96515;-93
2023/09/22 12:35:08;;;;;;;3.90;1.50;;;29.00;67.30;;;27.95;42.78;99238.56;10252939;28;96723;-87
2023/09/22 12:40:11;;;;;;;6.97;1.50;;;29.00;67.80;;;28.03;42.12;99253.44;10253155;28;98927;-90
2023/09/22 12:45:16;;;;;;;3.63;1.25;;;29.00;67.00;;;28.02;41.86;99245.53;10249069;28;96749;-88
2023/09/22 12:50:20;;;;;;;6.40;2.20;;;29.00;66.40;;;28.05;41.69;99243.00;10220027;28;96901;-91
2023/09/22 12:55:24;;;;;;;4.53;1.67;;;29.00;66.30;;;28.05;41.20;99250.38;10248329;28;97307;-88
2023/09/22 13:00:28;;;;;;;2.05;1.10;;;29.00;65.60;;;28.15;40.77;99250.16;10275285;28;97022;-91
2023/09/22 13:05:33;;;;;;;2.35;1.27;;;29.10;65.40;;;28.27;40.94;99229.38;10246598;28;96505;-89
2023/09/22 13:10:40;;;;;;;18.38;10.30;;;29.20;66.00;;;28.42;41.01;99230.97;10262561;28;97019;-90
2023/09/22 13:15:48;;;;;;;4.60;1.33;;;29.40;65.40;;;28.57;39.53;99216.16;10239542;28;98315;-90
2023/09/22 13:20:52;;;;;;;4.03;1.70;;;29.50;63.90;;;28.63;40.58;99225.84;10277071;28;96975;-89
2023/09/22 13:25:55;;;;;;;3.15;1.30;;;29.60;64.50;;;28.49;40.02;99236.03;10254976;28;98529;-89
2023/09/22 13:30:59;;;;;;;3.50;1.20;;;29.50;64.20;;;28.27;40.20;99221.19;10257169;28;96591;-92
2023/09/22 13:36:03;;;;;;;4.43;1.83;;;29.30;64.00;;;28.22;41.03;99229.50;10259160;28;98936;-89
2023/09/22 13:41:15;;;;;;;8.40;1.52;;;29.20;64.50;;;28.17;40.94;99223.34;10245996;28;96988;-87
2023/09/22 13:46:18;;;;;;;11.05;5.90;;;29.20;64.30;;;28.07;41.54;99229.88;10262414;28;98069;-93
2023/09/22 13:51:22;;;;;;;4.03;1.50;;;29.00;64.80;;;28.06;41.53;99230.16;10260752;28;96398;-91
2023/09/22 13:56:26;;;;;;;3.28;1.20;;;29.00;64.90;;;28.15;42.48;99217.38;10242236;28;98468;-92
2023/09/22 14:01:31;;;;;;;3.30;1.15;;;29.10;65.50;;;28.20;41.98;99211.81;10243268;28;96466;-91
2023/09/22 14:06:35;;;;;;;6.13;2.05;;;29.10;65.30;;;28.20;41.58;99206.34;10256704;28;96682;-92
2023/09/22 14:11:38;;;;;;;6.18;1.60;;;29.20;65.10;;;28.21;41.68;99205.22;10245460;28;97900;-92
2023/09/22 14:16:42;;;;;;;3.70;1.55;;;29.20;64.80;;;28.23;40.94;99212.00;10254722;28;96432;-94
2023/09/22 14:21:46;;;;;;;6.40;1.60;;;29.20;64.20;;;28.21;41.27;99208.78;10274311;28;96532;-94
2023/09/22 14:26:50;;;;;;;2.67;1.00;;;29.20;64.20;;;28.28;40.58;99208.34;10292980;28;96646;-92
2023/09/22 14:31:54;;;;;;;10.23;1.63;;;29.20;63.70;;;28.25;39.97;99203.50;10265711;28;97222;-93
2023/09/22 14:36:57;;;;;;;4.47;1.38;;;29.20;63.00;;;28.20;39.99;99196.22;10259385;28;96461;-94
2023/09/22 14:42:01;;;;;;;2.55;1.35;;;29.20;63.00;;;28.20;40.86;99195.44;10259104;28;96619;-92
2023/09/22 14:47:05;;;;;;;2.22;1.05;;;29.20;63.40;;;28.27;41.42;99201.28;10272000;28;96688;-94
2023/09/22 14:52:08;;;;;;;2.80;1.42;;;29.30;63.80;;;28.31;40.80;99191.34;10264876;28;98068;-94
2023/09/22 14:57:13;;;;;;;5.32;1.33;;;29.30;63.50;;;28.36;40.40;99215.81;10255912;28;96508;-94
2023/09/22 15:02:17;;;;;;;4.88;1.10;;;29.30;62.90;;;28.36;40.64;99210.34;10260906;28;96594;-96
2023/09/22 15:07:21;;;;;;;3.55;0.95;;;29.30;63.00;;;28.41;40.46;99203.97;10243760;28;96489;-92
2023/09/22 15:12:26;;;;;;;6.43;1.40;;;29.40;62.90;;;28.41;40.46;99207.50;10232164;28;96622;-96
2023/09/22 15:17:29;;;;;;;3.53;1.10;;;29.50;63.00;;;28.44;40.45;99209.63;10275886;28;96813;-93
2023/09/22 15:22:33;;;;;;;4.32;1.05;;;29.60;63.20;;;28.44;39.90;99209.63;10276565;28;96452;-92
2023/09/22 15:27:36;;;;;;;3.35;1.40;;;29.70;62.30;;;28.26;39.85;99221.50;10272450;28;96626;-94
2023/09/22 15:32:40;;;;;;;4.20;1.10;;;29.50;61.80;;;28.02;40.02;99227.25;10289738;28;96799;-95
2023/09/22 15:37:44;;;;;;;2.17;1.05;;;29.20;62.00;;;27.74;40.48;99238.19;10217464;28;96390;-94
2023/09/22 15:42:48;;;;;;;4.85;1.10;;;28.90;62.20;;;27.53;40.88;99242.41;10256343;28;96593;-95
2023/09/22 15:47:51;;;;;;;3.45;1.33;;;28.60;62.70;;;27.29;41.46;99242.59;10257740;28;96619;-93
2023/09/22 15:52:55;;;;;;;4.10;0.98;;;28.40;63.20;;;27.09;42.56;99242.97;10288638;28;96444;-92
2023/09/22 15:57:59;;;;;;;4.40;1.33;;;28.20;63.70;;;26.92;42.78;99252.47;10261676;28;96713;-92
2023/09/22 16:03:03;;;;;;;1.67;0.70;;;27.90;64.00;;;26.73;42.97;99257.16;10234394;28;96728;-92
2023/09/22 16:08:07;;;;;;;4.43;1.20;;;27.80;64.50;;;26.57;44.12;99258.50;10255869;28;96556;-95
2023/09/22 16:13:12;;;;;;;2.83;1.05;;;27.60;65.00;;;26.42;44.74;99273.16;10279375;28;98686;-93
2023/09/22 16:18:31;;;;;;;2.20;0.80;;;27.50;65.80;;;26.25;45.47;99279.09;10265436;28;96490;-93
2023/09/22 16:23:35;;;;;;;3.20;1.00;;;27.30;66.20;;;26.08;45.92;99276.88;10232411;28;96522;-93
2023/09/22 16:28:38;;;;;;;2.15;0.73;;;27.10;66.70;;;25.91;46.41;99271.13;10261997;28;96581;-92
2023/09/22 16:33:42;;;;;;;3.30;0.90;;;27.00;67.10;;;25.75;46.60;99289.53;10262088;28;96503;-93
2023/09/22 16:38:46;;;;;;;2.17;1.05;;;26.80;67.50;;;25.58;45.65;99289.16;10262717;28;96551;-94
2023/09/22 16:43:51;;;;;;;2.45;0.95;;;26.60;67.30;;;25.51;46.04;99286.78;10261599;28;98199;-94
2023/09/22 16:48:54;;;;;;;3.28;1.10;;;26.50;67.10;;;25.48;46.37;99292.78;10294145;28;96496;-94
2023/09/22 16:53:58;;;;;;;2.28;0.80;;;26.40;67.20;;;25.44;46.23;99297.19;10257449;28;96629;-93
2023/09/22 16:59:02;;;;;;;4.05;1.38;;;26.40;67.30;;;25.36;46.27;99295.88;10254895;28;96589;-93
2023/09/22 17:04:07;;;;;;;2.33;1.10;;;26.40;67.40;;;25.31;46.65;99304.13;10214941;28;96654;-94
2023/09/22 17:09:11;;;;;;;5.20;1.25;;;26.30;67.60;;;25.22;46.88;99294.94;10253254;28;96627;-93
2023/09/22 17:14:15;;;;;;;2.42;1.05;;;26.20;67.90;;;25.13;46.94;99299.41;10223932;28;96601;-93
2023/09/22 17:19:20;;;;;;;1.10;0.63;;;26.10;68.00;;;25.01;47.25;99297.00;10229207;28;97795;-93
2023/09/22 17:24:24;;;;;;;4.80;1.10;;;26.10;68.30;;;24.91;48.02;99299.00;10235124;28;96516;-94
2023/09/22 17:29:28;;;;;;;2.33;1.00;;;26.00;68.60;;;24.82;48.08;99304.22;10259899;28;96774;-93
2023/09/22 17:34:32;;;;;;;1.88;0.80;;;25.90;68.80;;;24.76;48.25;99308.88;10276438;28;97009;-92
2023/09/22 17:39:36;;;;;;;3.72;1.00;;;25.80;69.00;;;24.68;48.78;99304.03;10259296;28;96501;-93
2023/09/22 17:44:40;;;;;;;3.63;1.15;;;25.70;69.20;;;24.57;48.84;99324.22;10260425;28;96674;-93
2023/09/22 17:49:44;;;;;;;3.40;1.02;;;25.60;69.60;;;24.44;49.59;99328.38;10254172;28;97438;-94
2023/09/22 17:54:47;;;;;;;3.70;1.13;;;25.50;70.00;;;24.29;49.79;99323.00;10222754;28;96622;-93
2023/09/22 17:59:51;;;;;;;2.63;0.93;;;25.40;70.40;;;24.15;50.73;99325.50;10275805;28;96553;-94
2023/09/22 18:04:55;;;;;;;1.20;0.70;;;25.20;70.80;;;23.99;51.35;99330.19;10261962;28;96583;-94
2023/09/22 18:10:02;;;;;;;4.18;1.30;;;25.10;71.30;;;23.83;51.97;99328.59;10270529;28;96455;-90
2023/09/22 18:15:07;;;;;;;3.13;1.35;;;24.90;71.80;;;23.63;53.31;99324.06;10245635;28;97273;-92
2023/09/22 18:20:14;;;;;;;5.45;1.05;;;24.70;72.60;;;23.43;54.23;99332.97;10242535;28;96680;-91
2023/09/22 18:25:17;;;;;;;3.90;1.95;;;24.50;73.20;;;23.23;55.14;99336.53;10255185;28;96661;-91
2023/09/22 18:30:21;;;;;;;7.45;1.58;;;24.30;73.90;;;23.04;56.16;99326.53;10235116;28;96926;-91
2023/09/22 18:35:25;;;;;;;4.63;1.70;;;24.10;74.60;;;22.80;57.17;99326.19;10226790;28;96688;-91
2023/09/22 18:40:29;;;;;;;4.40;1.75;;;23.80;75.50;;;22.55;58.13;99322.38;10229849;28;98045;-91
2023/09/22 18:45:37;;;;;;;2.30;1.23;;;23.60;76.20;;;22.34;59.75;99315.25;10243628;28;98232;-91
2023/09/22 18:50:50;;;;;;;6.07;1.60;;;23.40;77.20;;;22.09;60.28;99315.97;10237364;28;97594;-91
2023/09/22 18:55:55;;;;;;;3.38;1.45;;;23.10;78.00;;;21.87;62.28;99326.94;10242938;28;97626;-90
2023/09/22 19:00:59;;;;;;;4.05;1.75;;;22.90;79.00;;;21.69;62.54;99327.41;10246197;28;97631;-91
2023/09/22 19:06:03;;;;;;;4.57;1.70;;;22.70;79.60;;;21.50;63.29;99341.34;10225540;28;97615;-91
2023/09/22 19:11:14;;;;;;;5.63;1.80;;;22.50;80.30;;;21.35;64.06;99349.31;10261577;28;96634;-91
2023/09/22 19:16:19;;;;;;;5.90;1.95;;;22.30;80.80;;;21.18;65.29;99351.34;10266388;28;96794;-90
2023/09/22 19:21:26;;;;;;;4.97;1.50;;;22.20;81.50;;;21.05;65.64;99344.47;10255835;28;96524;-90
2023/09/22 19:26:34;;;;;;;4.80;1.80;;;22.00;82.00;;;20.97;66.63;99339.53;10263630;28;96648;-90
2023/09/22 19:31:38;;;;;;;3.30;1.90;;;21.90;82.70;;;20.84;66.86;99352.38;10234975;28;97258;-90
2023/09/22 19:36:42;;;;;;;3.67;1.73;;;21.80;83.30;;;20.76;67.31;99352.06;10241611;28;96604;-91
2023/09/22 19:41:46;;;;;;;3.53;1.52;;;21.70;83.50;;;20.70;68.04;99356.59;10245826;28;97440;-90
2023/09/22 19:46:49;;;;;;;4.25;1.42;;;21.70;84.10;;;20.62;68.80;99353.50;10229321;28;98350;-91
2023/09/22 19:51:53;;;;;;;3.78;1.65;;;21.60;84.40;;;20.54;68.68;99357.47;10242004;28;99064;-91
2023/09/22 19:56:57;;;;;;;3.88;1.42;;;21.60;84.80;;;20.45;70.35;99351.72;10264101;28;96638;-91
2023/09/22 20:02:03;;;;;;;3.47;1.60;;;21.50;86.20;;;20.37;71.04;99360.22;10250490;28;96794;-90
2023/09/22 20:07:06;;;;;;;4.72;1.50;;;21.40;86.90;;;20.34;71.07;99352.66;10255752;28;96651;-91
2023/09/22 20:12:10;;;;;;;4.40;1.73;;;21.30;86.70;;;20.35;71.20;99356.97;10249782;28;96756;-90
2023/09/22 20:17:14;;;;;;;2.90;1.40;;;21.40;86.80;;;20.37;71.29;99346.72;10242731;28;98519;-90
2023/09/22 20:22:19;;;;;;;3.85;1.65;;;21.40;87.20;;;20.38;72.25;99344.84;10256271;28;96497;-87
2023/09/22 20:27:27;;;;;;;3.40;1.30;;;21.40;87.60;;;20.39;72.08;99347.31;10243034;28;99196;-89
2023/09/22 20:32:31;;;;;;;5.97;1.90;;;21.40;88.00;;;20.37;72.90;99341.34;10243937;28;96809;-89
2023/09/22 20:37:36;;;;;;;4.63;1.50;;;21.40;88.60;;;20.38;73.34;99334.88;10252892;28;96679;-90
2023/09/22 20:42:40;;;;;;;2.38;1.02;;;21.40;89.40;;;20.39;74.14;99346.47;10255213;28;97184;-89
2023/09/22 20:47:44;;;;;;;4.05;1.50;;;21.40;89.50;;;20.40;74.08;99340.84;10250965;28;98071;-89
2023/09/22 20:52:49;;;;;;;2.78;1.52;;;21.40;89.60;;;20.42;74.42;99360.28;10255216;28;96532;-89
2023/09/22 20:57:55;;;;;;;2.30;1.48;;;21.50;89.90;;;20.45;74.94;99361.66;10241109;28;96873;-89
2023/09/22 21:03:00;;;;;;;6.03;1.80;;;21.50;90.30;;;20.46;75.43;99364.16;10250187;28;97194;-90
2023/09/22 21:08:05;;;;;;;3.22;1.88;;;21.50;90.30;;;20.46;77.11;99366.03;10257866;28;97682;-90
2023/09/22 21:13:08;;;;;;;3.47;1.75;;;21.50;90.60;;;20.43;77.94;99355.69;10273637;28;98681;-91
2023/09/22 21:18:12;;;;;;;3.08;1.73;;;21.50;90.90;;;20.39;79.91;99354.56;10283872;28;97279;-89
2023/09/22 21:23:17;;;;;;;4.13;1.77;;;21.40;91.40;;;20.36;81.11;99363.19;10243238;28;98847;-89
2023/09/22 21:28:21;;;;;;;2.75;1.67;;;21.40;91.80;;;20.35;82.85;99350.75;10221363;28;98390;-90
2023/09/22 21:33:28;;;;;;;2.67;1.73;;;21.40;92.20;;;20.31;83.59;99358.53;10241397;28;96655;-90
2023/09/22 21:38:36;;;;;;;2.58;1.70;;;21.40;92.60;;;20.31;83.77;99355.84;10236910;28;98713;-90